sensor_id;sensor_type;location;lat;lon;timestamp;P1;durP1;ratioP1;P2;durP2;ratioP2
49366;SDS011;35245;52.026;8.540;2023-04-24T00:01:05;1.20;;;0.40;;
49366;SDS011;35245;52.026;8.540;2023-04-24T00:03:32;1.13;;;0.50;;
49366;SDS011;35245;52.026;8.540;2023-04-24T00:05:59;0.30;;;0.30;;
49366;SDS011;35245;52.026;8.540;2023-04-24T00:08:27;1.20;;;0.38;;
49366;SDS011;35245;52.026;8.540;2023-04-24T00:10:56;0.77;;;0.30;;
49366;SDS011;35245;52.026;8.540;2023-04-24T00:13:23;0.93;;;0.40;;
49366;SDS011;35245;52.026;8.540;2023-04-24T00:15:50;0.70;;;0.35;;
49366;SDS011;35245;52.026;8.540;2023-04-24T00:18:16;0.52;;;0.32;;
49366;SDS011;35245;52.026;8.540;2023-04-24T00:20:43;0.35;;;0.30;;
49366;SDS011;35245;52.026;8.540;2023-04-24T00:23:11;0.85;;;0.50;;
49366;SDS011;35245;52.026;8.540;2023-04-24T00:25:38;0.65;;;0.40;;
49366;SDS011;35245;52.026;8.540;2023-04-24T00:28:07;1.27;;;0.50;;
49366;SDS011;35245;52.026;8.540;2023-04-24T00:30:34;0.38;;;0.20;;
49366;SDS011;35245;52.026;8.540;2023-04-24T00:33:01;1.65;;;0.30;;
49366;SDS011;35245;52.026;8.540;2023-04-24T00:35:28;1.30;;;0.50;;
49366;SDS011;35245;52.026;8.540;2023-04-24T00:37:55;0.60;;;0.43;;
49366;SDS011;35245;52.026;8.540;2023-04-24T00:40:22;3.05;;;0.85;;
49366;SDS011;35245;52.026;8.540;2023-04-24T00:42:48;0.40;;;0.40;;
49366;SDS011;35245;52.026;8.540;2023-04-24T00:45:17;2.58;;;0.90;;
49366;SDS011;35245;52.026;8.540;2023-04-24T00:47:44;0.47;;;0.47;;
49366;SDS011;35245;52.026;8.540;2023-04-24T00:50:12;0.93;;;0.80;;
49366;SDS011;35245;52.026;8.540;2023-04-24T00:52:41;1.83;;;0.70;;
49366;SDS011;35245;52.026;8.540;2023-04-24T00:55:08;1.17;;;0.60;;
49366;SDS011;35245;52.026;8.540;2023-04-24T00:57:35;1.77;;;0.80;;
49366;SDS011;35245;52.026;8.540;2023-04-24T01:00:03;0.63;;;0.63;;
49366;SDS011;35245;52.026;8.540;2023-04-24T01:02:34;0.82;;;0.60;;
49366;SDS011;35245;52.026;8.540;2023-04-24T01:05:01;0.73;;;0.60;;
49366;SDS011;35245;52.026;8.540;2023-04-24T01:07:28;0.90;;;0.80;;
49366;SDS011;35245;52.026;8.540;2023-04-24T01:09:55;2.35;;;0.93;;
49366;SDS011;35245;52.026;8.540;2023-04-24T01:12:22;1.13;;;0.70;;
49366;SDS011;35245;52.026;8.540;2023-04-24T01:14:49;2.63;;;0.80;;
49366;SDS011;35245;52.026;8.540;2023-04-24T01:17:16;1.30;;;0.80;;
49366;SDS011;35245;52.026;8.540;2023-04-24T01:19:44;1.13;;;0.65;;
49366;SDS011;35245;52.026;8.540;2023-04-24T01:22:14;3.38;;;0.98;;
49366;SDS011;35245;52.026;8.540;2023-04-24T01:24:41;1.13;;;0.95;;
49366;SDS011;35245;52.026;8.540;2023-04-24T01:27:09;1.55;;;0.90;;
49366;SDS011;35245;52.026;8.540;2023-04-24T01:29:37;1.60;;;0.80;;
49366;SDS011;35245;52.026;8.540;2023-04-24T01:32:04;1.35;;;0.80;;
49366;SDS011;35245;52.026;8.540;2023-04-24T01:34:31;1.92;;;0.80;;
49366;SDS011;35245;52.026;8.540;2023-04-24T01:36:59;2.22;;;0.73;;
49366;SDS011;35245;52.026;8.540;2023-04-24T01:39:27;1.17;;;0.80;;
49366;SDS011;35245;52.026;8.540;2023-04-24T01:41:54;3.97;;;0.70;;
49366;SDS011;35245;52.026;8.540;2023-04-24T01:44:22;2.95;;;0.95;;
49366;SDS011;35245;52.026;8.540;2023-04-24T01:46:49;1.10;;;0.80;;
49366;SDS011;35245;52.026;8.540;2023-04-24T01:49:16;1.05;;;0.70;;
49366;SDS011;35245;52.026;8.540;2023-04-24T01:51:43;1.30;;;0.75;;
49366;SDS011;35245;52.026;8.540;2023-04-24T01:54:10;0.40;;;0.40;;
49366;SDS011;35245;52.026;8.540;2023-04-24T01:56:39;1.30;;;0.45;;
49366;SDS011;35245;52.026;8.540;2023-04-24T01:59:08;1.25;;;0.60;;
49366;SDS011;35245;52.026;8.540;2023-04-24T02:01:36;2.00;;;0.80;;
49366;SDS011;35245;52.026;8.540;2023-04-24T02:04:03;1.85;;;1.10;;
49366;SDS011;35245;52.026;8.540;2023-04-24T02:06:30;1.55;;;0.73;;
49366;SDS011;35245;52.026;8.540;2023-04-24T02:08:57;0.55;;;0.50;;
49366;SDS011;35245;52.026;8.540;2023-04-24T02:11:24;0.88;;;0.80;;
49366;SDS011;35245;52.026;8.540;2023-04-24T02:13:53;1.77;;;1.30;;
49366;SDS011;35245;52.026;8.540;2023-04-24T02:16:20;1.85;;;1.30;;
49366;SDS011;35245;52.026;8.540;2023-04-24T02:18:47;2.72;;;1.40;;
49366;SDS011;35245;52.026;8.540;2023-04-24T02:21:14;1.88;;;0.95;;
49366;SDS011;35245;52.026;8.540;2023-04-24T02:23:40;2.65;;;1.08;;
49366;SDS011;35245;52.026;8.540;2023-04-24T02:26:07;2.20;;;1.02;;
49366;SDS011;35245;52.026;8.540;2023-04-24T02:28:34;1.40;;;1.20;;
49366;SDS011;35245;52.026;8.540;2023-04-24T02:31:03;5.88;;;1.27;;
49366;SDS011;35245;52.026;8.540;2023-04-24T02:33:30;1.23;;;1.10;;
49366;SDS011;35245;52.026;8.540;2023-04-24T02:35:57;0.95;;;0.85;;
49366;SDS011;35245;52.026;8.540;2023-04-24T02:38:24;2.00;;;1.23;;
49366;SDS011;35245;52.026;8.540;2023-04-24T02:40:51;3.63;;;0.98;;
49366;SDS011;35245;52.026;8.540;2023-04-24T02:43:18;1.92;;;1.13;;
49366;SDS011;35245;52.026;8.540;2023-04-24T02:45:45;1.65;;;1.13;;
49366;SDS011;35245;52.026;8.540;2023-04-24T02:48:13;1.13;;;0.70;;
49366;SDS011;35245;52.026;8.540;2023-04-24T02:50:40;1.63;;;0.95;;
49366;SDS011;35245;52.026;8.540;2023-04-24T02:53:07;5.00;;;1.17;;
49366;SDS011;35245;52.026;8.540;2023-04-24T02:55:34;3.88;;;0.90;;
49366;SDS011;35245;52.026;8.540;2023-04-24T02:58:01;2.80;;;1.17;;
49366;SDS011;35245;52.026;8.540;2023-04-24T03:00:28;1.48;;;0.50;;
49366;SDS011;35245;52.026;8.540;2023-04-24T03:02:54;1.77;;;1.23;;
49366;SDS011;35245;52.026;8.540;2023-04-24T03:05:23;0.85;;;0.70;;
49366;SDS011;35245;52.026;8.540;2023-04-24T03:07:50;2.08;;;0.80;;
49366;SDS011;35245;52.026;8.540;2023-04-24T03:10:17;1.73;;;0.68;;
49366;SDS011;35245;52.026;8.540;2023-04-24T03:12:44;1.30;;;1.00;;
49366;SDS011;35245;52.026;8.540;2023-04-24T03:15:11;0.90;;;0.60;;
49366;SDS011;35245;52.026;8.540;2023-04-24T03:17:38;0.68;;;0.60;;
49366;SDS011;35245;52.026;8.540;2023-04-24T03:20:05;0.60;;;0.57;;
49366;SDS011;35245;52.026;8.540;2023-04-24T03:22:35;4.10;;;0.70;;
49366;SDS011;35245;52.026;8.540;2023-04-24T03:25:02;2.22;;;0.80;;
49366;SDS011;35245;52.026;8.540;2023-04-24T03:27:30;1.08;;;0.57;;
49366;SDS011;35245;52.026;8.540;2023-04-24T03:29:57;1.63;;;1.00;;
49366;SDS011;35245;52.026;8.540;2023-04-24T03:32:24;1.38;;;1.02;;
49366;SDS011;35245;52.026;8.540;2023-04-24T03:34:51;1.17;;;1.08;;
49366;SDS011;35245;52.026;8.540;2023-04-24T03:37:18;2.70;;;1.00;;
49366;SDS011;35245;52.026;8.540;2023-04-24T03:39:46;1.30;;;1.00;;
49366;SDS011;35245;52.026;8.540;2023-04-24T03:42:13;1.13;;;0.85;;
49366;SDS011;35245;52.026;8.540;2023-04-24T03:44:40;1.48;;;1.00;;
49366;SDS011;35245;52.026;8.540;2023-04-24T03:47:07;1.50;;;1.00;;
49366;SDS011;35245;52.026;8.540;2023-04-24T03:49:34;1.60;;;1.20;;
49366;SDS011;35245;52.026;8.540;2023-04-24T03:52:01;2.80;;;1.02;;
49366;SDS011;35245;52.026;8.540;2023-04-24T03:54:27;5.25;;;1.55;;
49366;SDS011;35245;52.026;8.540;2023-04-24T03:56:56;1.65;;;1.55;;
49366;SDS011;35245;52.026;8.540;2023-04-24T03:59:23;1.67;;;1.27;;
49366;SDS011;35245;52.026;8.540;2023-04-24T04:01:50;2.15;;;1.23;;
49366;SDS011;35245;52.026;8.540;2023-04-24T04:04:16;2.20;;;1.77;;
49366;SDS011;35245;52.026;8.540;2023-04-24T04:06:43;3.47;;;1.98;;
49366;SDS011;35245;52.026;8.540;2023-04-24T04:09:11;1.60;;;1.42;;
49366;SDS011;35245;52.026;8.540;2023-04-24T04:11:38;1.52;;;1.33;;
49366;SDS011;35245;52.026;8.540;2023-04-24T04:14:06;3.55;;;1.85;;
49366;SDS011;35245;52.026;8.540;2023-04-24T04:16:33;2.72;;;1.70;;
49366;SDS011;35245;52.026;8.540;2023-04-24T04:19:01;2.20;;;1.52;;
49366;SDS011;35245;52.026;8.540;2023-04-24T04:21:28;2.72;;;1.90;;
49366;SDS011;35245;52.026;8.540;2023-04-24T04:23:56;2.05;;;1.80;;
49366;SDS011;35245;52.026;8.540;2023-04-24T04:26:23;2.67;;;2.05;;
49366;SDS011;35245;52.026;8.540;2023-04-24T04:28:50;2.58;;;1.83;;
49366;SDS011;35245;52.026;8.540;2023-04-24T04:31:19;2.97;;;2.10;;
49366;SDS011;35245;52.026;8.540;2023-04-24T04:33:46;3.47;;;2.15;;
49366;SDS011;35245;52.026;8.540;2023-04-24T04:36:12;5.82;;;2.50;;
49366;SDS011;35245;52.026;8.540;2023-04-24T04:38:39;3.75;;;2.67;;
49366;SDS011;35245;52.026;8.540;2023-04-24T04:41:08;3.00;;;2.47;;
49366;SDS011;35245;52.026;8.540;2023-04-24T04:43:35;2.42;;;2.22;;
49366;SDS011;35245;52.026;8.540;2023-04-24T04:46:03;4.50;;;3.05;;
49366;SDS011;35245;52.026;8.540;2023-04-24T04:48:31;4.15;;;2.97;;
49366;SDS011;35245;52.026;8.540;2023-04-24T04:50:58;5.55;;;3.08;;
49366;SDS011;35245;52.026;8.540;2023-04-24T04:53:25;3.75;;;3.28;;
49366;SDS011;35245;52.026;8.540;2023-04-24T04:55:52;9.60;;;4.65;;
49366;SDS011;35245;52.026;8.540;2023-04-24T04:58:19;6.78;;;4.43;;
49366;SDS011;35245;52.026;8.540;2023-04-24T05:00:46;10.02;;;5.93;;
49366;SDS011;35245;52.026;8.540;2023-04-24T05:03:13;10.75;;;6.07;;
49366;SDS011;35245;52.026;8.540;2023-04-24T05:05:41;9.18;;;6.22;;
49366;SDS011;35245;52.026;8.540;2023-04-24T05:08:08;9.55;;;6.10;;
49366;SDS011;35245;52.026;8.540;2023-04-24T05:10:35;10.02;;;7.40;;
49366;SDS011;35245;52.026;8.540;2023-04-24T05:13:02;9.93;;;6.95;;
49366;SDS011;35245;52.026;8.540;2023-04-24T05:15:29;10.27;;;6.85;;
49366;SDS011;35245;52.026;8.540;2023-04-24T05:17:56;12.80;;;6.90;;
49366;SDS011;35245;52.026;8.540;2023-04-24T05:20:23;12.35;;;7.35;;
49366;SDS011;35245;52.026;8.540;2023-04-24T05:22:52;10.30;;;8.00;;
49366;SDS011;35245;52.026;8.540;2023-04-24T05:25:19;10.05;;;6.93;;
49366;SDS011;35245;52.026;8.540;2023-04-24T05:27:46;10.70;;;7.35;;
49366;SDS011;35245;52.026;8.540;2023-04-24T05:30:13;12.98;;;7.88;;
49366;SDS011;35245;52.026;8.540;2023-04-24T05:32:40;11.80;;;8.02;;
49366;SDS011;35245;52.026;8.540;2023-04-24T05:35:07;13.35;;;8.10;;
49366;SDS011;35245;52.026;8.540;2023-04-24T05:37:34;11.98;;;8.20;;
49366;SDS011;35245;52.026;8.540;2023-04-24T05:40:03;10.77;;;7.90;;
49366;SDS011;35245;52.026;8.540;2023-04-24T05:42:31;11.70;;;8.15;;
49366;SDS011;35245;52.026;8.540;2023-04-24T05:44:58;12.73;;;8.88;;
49366;SDS011;35245;52.026;8.540;2023-04-24T05:47:24;13.73;;;8.40;;
49366;SDS011;35245;52.026;8.540;2023-04-24T05:49:52;15.32;;;9.48;;
49366;SDS011;35245;52.026;8.540;2023-04-24T05:52:19;13.23;;;8.80;;
49366;SDS011;35245;52.026;8.540;2023-04-24T05:54:46;16.83;;;9.48;;
49366;SDS011;35245;52.026;8.540;2023-04-24T05:57:14;12.27;;;8.65;;
49366;SDS011;35245;52.026;8.540;2023-04-24T05:59:41;13.77;;;9.95;;
49366;SDS011;35245;52.026;8.540;2023-04-24T06:02:08;15.48;;;9.63;;
49366;SDS011;35245;52.026;8.540;2023-04-24T06:04:35;14.05;;;9.85;;
49366;SDS011;35245;52.026;8.540;2023-04-24T06:07:01;14.57;;;10.07;;
49366;SDS011;35245;52.026;8.540;2023-04-24T06:09:28;13.98;;;10.82;;
49366;SDS011;35245;52.026;8.540;2023-04-24T06:11:55;15.80;;;10.82;;
49366;SDS011;35245;52.026;8.540;2023-04-24T06:14:24;13.57;;;10.15;;
49366;SDS011;35245;52.026;8.540;2023-04-24T06:16:51;15.18;;;10.75;;
49366;SDS011;35245;52.026;8.540;2023-04-24T06:19:18;15.25;;;11.45;;
49366;SDS011;35245;52.026;8.540;2023-04-24T06:21:45;13.85;;;10.98;;
49366;SDS011;35245;52.026;8.540;2023-04-24T06:24:13;14.60;;;11.48;;
49366;SDS011;35245;52.026;8.540;2023-04-24T06:26:41;16.13;;;12.02;;
49366;SDS011;35245;52.026;8.540;2023-04-24T06:29:07;19.95;;;11.75;;
49366;SDS011;35245;52.026;8.540;2023-04-24T06:31:36;18.52;;;11.68;;
49366;SDS011;35245;52.026;8.540;2023-04-24T06:34:03;16.77;;;11.88;;
49366;SDS011;35245;52.026;8.540;2023-04-24T06:36:30;18.92;;;11.68;;
49366;SDS011;35245;52.026;8.540;2023-04-24T06:38:59;16.50;;;12.23;;
49366;SDS011;35245;52.026;8.540;2023-04-24T06:41:26;19.45;;;12.23;;
49366;SDS011;35245;52.026;8.540;2023-04-24T06:43:53;13.35;;;11.10;;
49366;SDS011;35245;52.026;8.540;2023-04-24T06:46:21;17.85;;;11.60;;
49366;SDS011;35245;52.026;8.540;2023-04-24T06:48:52;15.82;;;11.18;;
49366;SDS011;35245;52.026;8.540;2023-04-24T06:51:20;16.73;;;11.07;;
49366;SDS011;35245;52.026;8.540;2023-04-24T06:53:48;18.08;;;11.63;;
49366;SDS011;35245;52.026;8.540;2023-04-24T06:56:15;15.50;;;11.25;;
49366;SDS011;35245;52.026;8.540;2023-04-24T06:58:42;15.02;;;10.77;;
49366;SDS011;35245;52.026;8.540;2023-04-24T07:01:10;14.52;;;11.00;;
49366;SDS011;35245;52.026;8.540;2023-04-24T07:03:37;16.83;;;11.23;;
49366;SDS011;35245;52.026;8.540;2023-04-24T07:06:06;15.00;;;11.35;;
49366;SDS011;35245;52.026;8.540;2023-04-24T07:08:34;16.85;;;11.00;;
49366;SDS011;35245;52.026;8.540;2023-04-24T07:11:01;18.20;;;11.23;;
49366;SDS011;35245;52.026;8.540;2023-04-24T07:13:28;16.42;;;10.70;;
49366;SDS011;35245;52.026;8.540;2023-04-24T07:15:55;15.15;;;10.70;;
49366;SDS011;35245;52.026;8.540;2023-04-24T07:18:22;16.67;;;11.13;;
49366;SDS011;35245;52.026;8.540;2023-04-24T07:20:50;15.32;;;9.65;;
49366;SDS011;35245;52.026;8.540;2023-04-24T07:23:26;13.18;;;9.52;;
49366;SDS011;35245;52.026;8.540;2023-04-24T07:25:53;12.43;;;8.75;;
49366;SDS011;35245;52.026;8.540;2023-04-24T07:28:20;13.48;;;9.25;;
49366;SDS011;35245;52.026;8.540;2023-04-24T07:30:47;13.02;;;9.85;;
49366;SDS011;35245;52.026;8.540;2023-04-24T07:33:14;13.15;;;9.07;;
49366;SDS011;35245;52.026;8.540;2023-04-24T07:35:41;11.13;;;7.72;;
49366;SDS011;35245;52.026;8.540;2023-04-24T07:38:08;12.15;;;8.20;;
49366;SDS011;35245;52.026;8.540;2023-04-24T07:40:36;10.20;;;7.97;;
49366;SDS011;35245;52.026;8.540;2023-04-24T07:43:03;13.45;;;9.00;;
49366;SDS011;35245;52.026;8.540;2023-04-24T07:45:30;20.25;;;8.55;;
49366;SDS011;35245;52.026;8.540;2023-04-24T07:48:01;13.25;;;8.00;;
49366;SDS011;35245;52.026;8.540;2023-04-24T07:50:28;12.43;;;7.60;;
49366;SDS011;35245;52.026;8.540;2023-04-24T07:52:55;9.90;;;7.38;;
49366;SDS011;35245;52.026;8.540;2023-04-24T07:55:22;13.07;;;7.28;;
49366;SDS011;35245;52.026;8.540;2023-04-24T07:57:50;10.38;;;7.18;;
49366;SDS011;35245;52.026;8.540;2023-04-24T08:00:17;11.48;;;6.57;;
49366;SDS011;35245;52.026;8.540;2023-04-24T08:02:45;9.57;;;6.13;;
49366;SDS011;35245;52.026;8.540;2023-04-24T08:05:12;8.55;;;6.13;;
49366;SDS011;35245;52.026;8.540;2023-04-24T08:07:39;9.25;;;5.93;;
49366;SDS011;35245;52.026;8.540;2023-04-24T08:10:09;11.05;;;5.45;;
49366;SDS011;35245;52.026;8.540;2023-04-24T08:12:36;7.65;;;5.22;;
49366;SDS011;35245;52.026;8.540;2023-04-24T08:15:06;8.18;;;5.32;;
49366;SDS011;35245;52.026;8.540;2023-04-24T08:17:33;7.68;;;5.13;;
49366;SDS011;35245;52.026;8.540;2023-04-24T08:20:01;8.00;;;5.32;;
49366;SDS011;35245;52.026;8.540;2023-04-24T08:22:28;6.80;;;5.40;;
49366;SDS011;35245;52.026;8.540;2023-04-24T08:24:55;8.38;;;5.45;;
49366;SDS011;35245;52.026;8.540;2023-04-24T08:27:23;8.88;;;4.95;;
49366;SDS011;35245;52.026;8.540;2023-04-24T08:29:50;12.35;;;4.40;;
49366;SDS011;35245;52.026;8.540;2023-04-24T08:32:18;7.25;;;4.07;;
49366;SDS011;35245;52.026;8.540;2023-04-24T08:34:45;6.60;;;3.95;;
49366;SDS011;35245;52.026;8.540;2023-04-24T08:37:12;5.60;;;3.45;;
49366;SDS011;35245;52.026;8.540;2023-04-24T08:39:39;7.45;;;3.85;;
49366;SDS011;35245;52.026;8.540;2023-04-24T08:42:06;3.33;;;2.78;;
49366;SDS011;35245;52.026;8.540;2023-04-24T08:44:34;7.45;;;3.38;;
49366;SDS011;35245;52.026;8.540;2023-04-24T08:47:02;7.70;;;3.47;;
49366;SDS011;35245;52.026;8.540;2023-04-24T08:49:30;4.97;;;3.20;;
49366;SDS011;35245;52.026;8.540;2023-04-24T08:51:57;4.32;;;2.70;;
49366;SDS011;35245;52.026;8.540;2023-04-24T08:54:25;4.90;;;2.70;;
49366;SDS011;35245;52.026;8.540;2023-04-24T08:56:53;3.22;;;2.80;;
49366;SDS011;35245;52.026;8.540;2023-04-24T08:59:20;4.00;;;2.63;;
49366;SDS011;35245;52.026;8.540;2023-04-24T09:01:48;2.88;;;2.60;;
49366;SDS011;35245;52.026;8.540;2023-04-24T09:04:16;4.93;;;3.13;;
49366;SDS011;35245;52.026;8.540;2023-04-24T09:06:46;4.50;;;2.50;;
49366;SDS011;35245;52.026;8.540;2023-04-24T09:09:14;4.50;;;3.00;;
49366;SDS011;35245;52.026;8.540;2023-04-24T09:11:42;3.60;;;2.63;;
49366;SDS011;35245;52.026;8.540;2023-04-24T09:14:09;4.18;;;2.67;;
49366;SDS011;35245;52.026;8.540;2023-04-24T09:16:37;4.32;;;2.50;;
49366;SDS011;35245;52.026;8.540;2023-04-24T09:19:04;2.88;;;2.20;;
49366;SDS011;35245;52.026;8.540;2023-04-24T09:21:31;2.88;;;2.50;;
49366;SDS011;35245;52.026;8.540;2023-04-24T09:24:00;4.10;;;2.75;;
49366;SDS011;35245;52.026;8.540;2023-04-24T09:26:29;3.75;;;2.28;;
49366;SDS011;35245;52.026;8.540;2023-04-24T09:28:58;3.58;;;2.33;;
49366;SDS011;35245;52.026;8.540;2023-04-24T09:31:26;4.60;;;2.83;;
49366;SDS011;35245;52.026;8.540;2023-04-24T09:33:55;4.40;;;2.50;;
49366;SDS011;35245;52.026;8.540;2023-04-24T09:36:26;4.18;;;2.30;;
49366;SDS011;35245;52.026;8.540;2023-04-24T09:41:25;10.75;;;3.00;;
49366;SDS011;35245;52.026;8.540;2023-04-24T09:43:53;7.93;;;4.55;;
49366;SDS011;35245;52.026;8.540;2023-04-24T09:46:20;3.33;;;1.75;;
49366;SDS011;35245;52.026;8.540;2023-04-24T09:48:47;2.35;;;1.63;;
49366;SDS011;35245;52.026;8.540;2023-04-24T09:51:15;3.47;;;2.03;;
49366;SDS011;35245;52.026;8.540;2023-04-24T09:53:45;4.47;;;3.50;;
49366;SDS011;35245;52.026;8.540;2023-04-24T09:56:12;4.63;;;2.03;;
49366;SDS011;35245;52.026;8.540;2023-04-24T09:58:40;4.50;;;1.98;;
49366;SDS011;35245;52.026;8.540;2023-04-24T10:01:07;4.78;;;2.40;;
49366;SDS011;35245;52.026;8.540;2023-04-24T10:03:35;2.95;;;2.38;;
49366;SDS011;35245;52.026;8.540;2023-04-24T10:06:03;2.00;;;1.55;;
49366;SDS011;35245;52.026;8.540;2023-04-24T10:08:34;3.67;;;1.40;;
49366;SDS011;35245;52.026;8.540;2023-04-24T10:11:02;4.30;;;1.60;;
49366;SDS011;35245;52.026;8.540;2023-04-24T10:13:29;2.17;;;1.30;;
49366;SDS011;35245;52.026;8.540;2023-04-24T10:15:58;3.35;;;1.10;;
49366;SDS011;35245;52.026;8.540;2023-04-24T10:18:26;3.45;;;1.08;;
49366;SDS011;35245;52.026;8.540;2023-04-24T10:20:53;4.15;;;1.00;;
49366;SDS011;35245;52.026;8.540;2023-04-24T10:23:21;3.72;;;1.13;;
49366;SDS011;35245;52.026;8.540;2023-04-24T10:25:48;5.80;;;1.48;;
49366;SDS011;35245;52.026;8.540;2023-04-24T10:28:15;2.58;;;2.00;;
49366;SDS011;35245;52.026;8.540;2023-04-24T10:30:43;6.72;;;1.20;;
49366;SDS011;35245;52.026;8.540;2023-04-24T10:33:11;1.60;;;0.98;;
49366;SDS011;35245;52.026;8.540;2023-04-24T10:35:40;2.58;;;1.30;;
49366;SDS011;35245;52.026;8.540;2023-04-24T10:38:09;1.75;;;1.50;;
49366;SDS011;35245;52.026;8.540;2023-04-24T10:40:38;3.13;;;1.80;;
49366;SDS011;35245;52.026;8.540;2023-04-24T10:43:06;1.75;;;1.50;;
49366;SDS011;35245;52.026;8.540;2023-04-24T10:45:34;4.88;;;2.42;;
49366;SDS011;35245;52.026;8.540;2023-04-24T10:48:02;3.47;;;2.13;;
49366;SDS011;35245;52.026;8.540;2023-04-24T10:50:43;3.13;;;2.53;;
49366;SDS011;35245;52.026;8.540;2023-04-24T10:53:15;6.55;;;3.88;;
49366;SDS011;35245;52.026;8.540;2023-04-24T10:55:44;8.57;;;4.22;;
49366;SDS011;35245;52.026;8.540;2023-04-24T10:58:12;6.72;;;4.30;;
49366;SDS011;35245;52.026;8.540;2023-04-24T11:00:40;6.03;;;4.63;;
49366;SDS011;35245;52.026;8.540;2023-04-24T11:03:09;6.78;;;4.72;;
49366;SDS011;35245;52.026;8.540;2023-04-24T11:05:51;9.82;;;5.60;;
49366;SDS011;35245;52.026;8.540;2023-04-24T11:08:22;8.65;;;5.57;;
49366;SDS011;35245;52.026;8.540;2023-04-24T11:10:57;5.63;;;4.78;;
49366;SDS011;35245;52.026;8.540;2023-04-24T11:13:27;16.67;;;13.05;;
49366;SDS011;35245;52.026;8.540;2023-04-24T11:16:20;7.28;;;5.30;;
49366;SDS011;35245;52.026;8.540;2023-04-24T11:18:50;6.80;;;4.68;;
49366;SDS011;35245;52.026;8.540;2023-04-24T11:21:21;6.10;;;4.70;;
49366;SDS011;35245;52.026;8.540;2023-04-24T11:23:49;4.88;;;4.13;;
49366;SDS011;35245;52.026;8.540;2023-04-24T11:26:25;6.50;;;4.78;;
49366;SDS011;35245;52.026;8.540;2023-04-24T11:29:05;6.13;;;4.63;;
49366;SDS011;35245;52.026;8.540;2023-04-24T11:31:37;7.00;;;4.32;;
49366;SDS011;35245;52.026;8.540;2023-04-24T11:34:08;5.47;;;3.95;;
49366;SDS011;35245;52.026;8.540;2023-04-24T11:36:36;5.50;;;4.40;;
49366;SDS011;35245;52.026;8.540;2023-04-24T11:39:03;4.75;;;4.20;;
49366;SDS011;35245;52.026;8.540;2023-04-24T11:41:31;6.75;;;4.00;;
49366;SDS011;35245;52.026;8.540;2023-04-24T11:43:59;3.72;;;2.85;;
49366;SDS011;35245;52.026;8.540;2023-04-24T11:46:27;4.63;;;3.78;;
49366;SDS011;35245;52.026;8.540;2023-04-24T11:48:55;7.03;;;4.88;;
49366;SDS011;35245;52.026;8.540;2023-04-24T11:51:22;4.95;;;3.92;;
49366;SDS011;35245;52.026;8.540;2023-04-24T11:53:51;6.97;;;3.63;;
49366;SDS011;35245;52.026;8.540;2023-04-24T11:56:19;4.57;;;3.55;;
49366;SDS011;35245;52.026;8.540;2023-04-24T11:58:47;5.13;;;3.20;;
49366;SDS011;35245;52.026;8.540;2023-04-24T12:01:14;4.53;;;3.17;;
49366;SDS011;35245;52.026;8.540;2023-04-24T12:03:41;10.65;;;3.83;;
49366;SDS011;35245;52.026;8.540;2023-04-24T12:06:11;4.75;;;3.80;;
49366;SDS011;35245;52.026;8.540;2023-04-24T12:08:38;5.63;;;3.88;;
49366;SDS011;35245;52.026;8.540;2023-04-24T12:11:07;6.20;;;4.88;;
49366;SDS011;35245;52.026;8.540;2023-04-24T12:13:34;8.30;;;5.00;;
49366;SDS011;35245;52.026;8.540;2023-04-24T12:16:02;8.35;;;6.32;;
49366;SDS011;35245;52.026;8.540;2023-04-24T12:18:30;7.40;;;4.82;;
49366;SDS011;35245;52.026;8.540;2023-04-24T12:23:47;9.40;;;5.32;;
49366;SDS011;35245;52.026;8.540;2023-04-24T12:26:17;10.77;;;6.20;;
49366;SDS011;35245;52.026;8.540;2023-04-24T12:28:46;10.60;;;6.45;;
49366;SDS011;35245;52.026;8.540;2023-04-24T12:31:14;13.35;;;7.50;;
49366;SDS011;35245;52.026;8.540;2023-04-24T12:33:42;10.90;;;6.95;;
49366;SDS011;35245;52.026;8.540;2023-04-24T12:36:10;12.52;;;7.60;;
49366;SDS011;35245;52.026;8.540;2023-04-24T12:38:38;13.65;;;7.80;;
49366;SDS011;35245;52.026;8.540;2023-04-24T12:41:06;15.38;;;8.65;;
49366;SDS011;35245;52.026;8.540;2023-04-24T12:43:36;14.02;;;8.13;;
49366;SDS011;35245;52.026;8.540;2023-04-24T12:46:03;12.38;;;7.72;;
49366;SDS011;35245;52.026;8.540;2023-04-24T12:48:30;12.30;;;8.40;;
49366;SDS011;35245;52.026;8.540;2023-04-24T12:50:58;15.82;;;8.63;;
49366;SDS011;35245;52.026;8.540;2023-04-24T12:53:26;17.15;;;9.02;;
49366;SDS011;35245;52.026;8.540;2023-04-24T12:55:56;14.20;;;8.73;;
49366;SDS011;35245;52.026;8.540;2023-04-24T12:58:23;12.63;;;8.48;;
49366;SDS011;35245;52.026;8.540;2023-04-24T13:00:51;16.42;;;9.93;;
49366;SDS011;35245;52.026;8.540;2023-04-24T13:03:19;14.93;;;9.82;;
49366;SDS011;35245;52.026;8.540;2023-04-24T13:05:47;18.70;;;11.18;;
49366;SDS011;35245;52.026;8.540;2023-04-24T13:08:14;20.17;;;10.18;;
49366;SDS011;35245;52.026;8.540;2023-04-24T13:10:41;21.13;;;11.23;;
49366;SDS011;35245;52.026;8.540;2023-04-24T13:13:08;15.63;;;10.10;;
49366;SDS011;35245;52.026;8.540;2023-04-24T13:15:35;17.67;;;10.52;;
49366;SDS011;35245;52.026;8.540;2023-04-24T13:18:04;18.38;;;10.18;;
49366;SDS011;35245;52.026;8.540;2023-04-24T13:20:31;26.33;;;11.95;;
49366;SDS011;35245;52.026;8.540;2023-04-24T13:23:00;18.92;;;9.07;;
49366;SDS011;35245;52.026;8.540;2023-04-24T13:25:27;18.30;;;10.18;;
49366;SDS011;35245;52.026;8.540;2023-04-24T13:27:56;16.50;;;8.23;;
49366;SDS011;35245;52.026;8.540;2023-04-24T13:30:23;16.65;;;8.10;;
49366;SDS011;35245;52.026;8.540;2023-04-24T13:32:50;17.27;;;10.13;;
49366;SDS011;35245;52.026;8.540;2023-04-24T13:35:19;21.20;;;11.32;;
49366;SDS011;35245;52.026;8.540;2023-04-24T13:37:46;32.85;;;15.60;;
49366;SDS011;35245;52.026;8.540;2023-04-24T13:40:13;23.13;;;13.73;;
49366;SDS011;35245;52.026;8.540;2023-04-24T13:42:40;23.40;;;13.95;;
49366;SDS011;35245;52.026;8.540;2023-04-24T13:45:07;30.17;;;16.95;;
49366;SDS011;35245;52.026;8.540;2023-04-24T13:47:35;31.00;;;15.07;;
49366;SDS011;35245;52.026;8.540;2023-04-24T13:50:02;25.95;;;15.88;;
49366;SDS011;35245;52.026;8.540;2023-04-24T13:52:31;28.08;;;16.65;;
49366;SDS011;35245;52.026;8.540;2023-04-24T13:54:58;29.00;;;15.70;;
49366;SDS011;35245;52.026;8.540;2023-04-24T13:57:25;36.95;;;18.50;;
49366;SDS011;35245;52.026;8.540;2023-04-24T13:59:53;27.10;;;14.55;;
49366;SDS011;35245;52.026;8.540;2023-04-24T14:02:20;25.35;;;14.68;;
49366;SDS011;35245;52.026;8.540;2023-04-24T14:04:47;32.75;;;15.27;;
49366;SDS011;35245;52.026;8.540;2023-04-24T14:07:14;30.17;;;16.58;;
49366;SDS011;35245;52.026;8.540;2023-04-24T14:09:42;27.63;;;15.40;;
49366;SDS011;35245;52.026;8.540;2023-04-24T14:12:09;29.15;;;17.42;;
49366;SDS011;35245;52.026;8.540;2023-04-24T14:14:36;29.83;;;16.35;;
49366;SDS011;35245;52.026;8.540;2023-04-24T14:17:03;24.35;;;12.02;;
49366;SDS011;35245;52.026;8.540;2023-04-24T14:19:30;26.40;;;13.15;;
49366;SDS011;35245;52.026;8.540;2023-04-24T14:21:57;22.13;;;10.68;;
49366;SDS011;35245;52.026;8.540;2023-04-24T14:24:24;22.02;;;10.35;;
49366;SDS011;35245;52.026;8.540;2023-04-24T14:26:52;21.02;;;12.32;;
49366;SDS011;35245;52.026;8.540;2023-04-24T14:29:19;18.25;;;9.73;;
49366;SDS011;35245;52.026;8.540;2023-04-24T14:31:46;21.63;;;10.15;;
49366;SDS011;35245;52.026;8.540;2023-04-24T14:34:13;17.73;;;8.80;;
49366;SDS011;35245;52.026;8.540;2023-04-24T14:36:40;15.82;;;7.22;;
49366;SDS011;35245;52.026;8.540;2023-04-24T14:39:08;19.33;;;9.13;;
49366;SDS011;35245;52.026;8.540;2023-04-24T14:41:36;15.30;;;7.97;;
49366;SDS011;35245;52.026;8.540;2023-04-24T14:44:05;14.25;;;7.22;;
49366;SDS011;35245;52.026;8.540;2023-04-24T14:46:32;12.60;;;6.55;;
49366;SDS011;35245;52.026;8.540;2023-04-24T14:48:59;16.58;;;7.28;;